Time;durP1;ratioP1;P1;durP2;ratioP2;P2;SDS_P1;SDS_P2;PMS_P1;PMS_P2;Temp;Humidity;BMP_temperature;BMP_pressure;BME280_temperature;BME280_humidity;BME280_pressure;Samples;Min_cycle;Max_cycle;Signal;HPM_P1;HPM_P2
2022/05/22 00:02:23;;;;;;;4.65;3.05;;;;;;;24.19;45.08;96929.56;5133327;27;20527;-36
2022/05/22 00:04:49;;;;;;;3.25;2.40;;;;;;;24.24;45.06;96933.59;5136870;27;20020;-36
2022/05/22 00:07:14;;;;;;;3.78;2.78;;;;;;;24.19;45.39;96926.78;5118638;27;20029;-36
2022/05/22 00:09:40;;;;;;;2.45;2.22;;;;;;;24.17;45.23;96931.31;5134844;27;20027;-36
2022/05/22 00:12:07;;;;;;;3.83;2.30;;;;;;;24.16;45.17;96922.25;5135499;27;20115;-36
2022/05/22 00:14:33;;;;;;;3.20;2.10;;;;;;;24.13;45.33;96926.00;5137096;27;20084;-36
2022/05/22 00:16:59;;;;;;;5.45;2.55;;;;;;;24.19;44.86;96920.47;5137164;27;20015;-36
2022/05/22 00:19:27;;;;;;;6.22;2.28;;;;;;;24.14;45.03;96918.47;5137262;27;20501;-37
2022/05/22 00:21:53;;;;;;;3.25;2.38;;;;;;;24.19;44.94;96912.16;5137140;27;20102;-36
2022/05/22 00:24:21;;;;;;;6.25;2.67;;;;;;;24.20;45.07;96925.53;5137096;27;20026;-36
2022/05/22 00:26:48;;;;;;;5.13;2.35;;;;;;;24.21;44.91;96917.97;5137317;27;20080;-37
2022/05/22 00:29:15;;;;;;;4.70;2.55;;;;;;;24.15;45.17;96911.66;5137057;27;20080;-37
2022/05/22 00:31:42;;;;;;;4.05;2.30;;;;;;;24.17;44.89;96917.47;5136941;27;20428;-36
2022/05/22 00:34:08;;;;;;;2.55;2.00;;;;;;;24.12;45.47;96910.66;5137424;27;20030;-37
2022/05/22 00:36:33;;;;;;;2.95;2.10;;;;;;;24.09;45.55;96910.94;5136681;27;20071;-36
2022/05/22 00:38:59;;;;;;;4.05;2.58;;;;;;;24.14;45.03;96907.38;5136965;27;20440;-36
2022/05/22 00:41:25;;;;;;;4.60;2.20;;;;;;;24.19;44.94;96904.63;5136725;27;20028;-36
2022/05/22 00:43:55;;;;;;;4.00;2.58;;;;;;;24.13;45.20;96901.06;5136865;27;20038;-36
2022/05/22 00:46:23;;;;;;;4.55;2.67;;;;;;;24.13;45.05;96898.31;5136640;27;20015;-36
2022/05/22 00:48:53;;;;;;;4.50;2.40;;;;;;;24.15;44.95;96892.25;5118612;27;20454;-36
2022/05/22 00:51:25;;;;;;;4.47;2.30;;;;;;;24.06;45.51;96890.50;5136566;27;20065;-36
2022/05/22 00:54:03;;;;;;;4.43;2.40;;;;;;;24.07;45.48;96892.03;5136951;27;20452;-36
2022/05/22 00:56:35;;;;;;;4.68;2.30;;;;;;;24.12;44.82;96894.03;5136592;27;20035;-36
2022/05/22 00:59:05;;;;;;;4.22;2.28;;;;;;;24.10;45.08;96890.28;5136465;27;20023;-37
2022/05/22 01:01:30;;;;;;;2.83;2.40;;;;;;;24.14;44.58;96887.97;5136438;27;20019;-37
2022/05/22 01:03:57;;;;;;;2.83;2.05;;;;;;;24.14;44.76;96885.22;5136407;27;20034;-36
2022/05/22 01:06:25;;;;;;;3.63;2.42;;;;;;;24.06;45.01;96884.22;5136142;27;20100;-36
2022/05/22 01:08:51;;;;;;;4.45;2.40;;;;;;;24.03;45.20;96885.97;5136397;27;20034;-36
2022/05/22 01:11:22;;;;;;;3.85;2.22;;;;;;;24.06;45.09;96881.44;5136212;27;20075;-37
2022/05/22 01:13:54;;;;;;;2.50;1.92;;;;;;;24.09;44.71;96883.97;5136479;27;20106;-36
2022/05/22 01:16:20;;;;;;;;;;;;;;;24.05;45.02;96880.69;5136480;27;20023;-36
2022/05/22 01:18:49;;;;;;;4.75;2.50;;;;;;;24.09;44.58;96883.22;5117550;27;19929;-36
2022/05/22 01:21:18;;;;;;;4.15;2.38;;;;;;;24.12;44.58;96876.63;5135998;27;20030;-37
2022/05/22 01:23:45;;;;;;;4.03;2.20;;;;;;;24.07;44.70;96874.66;5136252;27;20019;-36
2022/05/22 01:26:11;;;;;;;4.57;2.20;;;;;;;24.05;44.92;96877.16;5117571;27;20079;-36
2022/05/22 01:28:37;;;;;;;2.75;1.95;;;;;;;24.02;44.91;96880.94;5135915;27;20471;-36
2022/05/22 01:31:03;;;;;;;4.80;2.50;;;;;;;24.11;44.90;96866.84;5135871;27;20052;-36
2022/05/22 01:33:29;;;;;;;4.72;2.47;;;;;;;24.06;45.04;96867.59;5135819;27;20423;-36
2022/05/22 01:35:54;;;;;;;3.25;2.30;;;;;;;24.05;45.08;96868.84;5135628;27;20031;-36
2022/05/22 01:38:20;;;;;;;3.63;2.65;;;;;;;24.08;44.68;96865.06;5135778;27;20015;-36
2022/05/22 01:40:46;;;;;;;4.35;2.28;;;;;;;24.08;44.77;96870.63;5135873;27;20417;-37
2022/05/22 01:43:12;;;;;;;3.97;2.45;;;;;;;24.10;45.16;96868.09;5135611;27;20124;-36
2022/05/22 01:45:41;;;;;;;2.85;2.30;;;;;;;24.07;44.97;96874.66;5117131;27;20451;-36
2022/05/22 01:48:07;;;;;;;3.55;2.50;;;;;;;24.07;44.99;96861.56;5135491;27;20039;-37
2022/05/22 01:50:32;;;;;;;3.75;2.35;;;;;;;24.08;44.76;96860.28;5117209;27;20019;-36
2022/05/22 01:52:58;;;;;;;4.68;2.50;;;;;;;24.05;45.05;96866.84;5117127;27;20019;-36
2022/05/22 01:55:24;;;;;;;3.63;2.70;;;;;;;24.00;45.42;96856.50;5135011;27;20047;-36
2022/05/22 01:57:49;;;;;;;5.38;2.63;;;;;;;24.04;44.86;96868.09;5135577;27;20416;-36
2022/05/22 02:00:19;;;;;;;6.13;2.80;;;;;;;24.05;44.98;96860.53;5135431;27;20027;-36
2022/05/22 02:02:46;;;;;;;3.67;2.22;;;;;;;24.00;45.06;96864.81;5135156;27;20023;-37
2022/05/22 02:05:12;;;;;;;4.80;2.30;;;;;;;24.03;44.74;96868.59;5135242;27;20023;-37
2022/05/22 02:10:23;;;;;;;5.40;2.70;;;;;;;24.02;44.97;96862.31;5134312;27;20030;-36
2022/05/22 02:12:48;;;;;;;4.03;2.70;;;;;;;24.10;44.57;96860.53;5118950;27;20019;-37
2022/05/22 02:15:14;;;;;;;4.88;2.80;;;;;;;24.05;44.85;96855.00;5123086;27;20038;-36
2022/05/22 02:17:39;;;;;;;4.60;2.90;;;;;;;24.05;44.70;96861.31;5135041;27;20027;-36
2022/05/22 02:20:05;;;;;;;3.22;2.30;;;;;;;24.07;44.95;96863.56;5134898;27;20048;-36
2022/05/22 02:22:31;;;;;;;3.30;2.38;;;;;;;24.06;45.07;96854.50;5134879;27;20023;-36
2022/05/22 02:24:58;;;;;;;6.18;2.38;;;;;;;24.04;45.25;96859.03;5134884;27;20034;-36
2022/05/22 02:27:23;;;;;;;5.40;2.65;;;;;;;24.04;44.96;96847.94;5134526;27;20019;-36
2022/05/22 02:29:49;;;;;;;4.90;2.38;;;;;;;24.02;45.17;96848.44;5134586;27;20111;-36
2022/05/22 02:32:14;;;;;;;3.30;2.20;;;;;;;23.96;45.04;96845.69;5134844;27;20496;-36
2022/05/22 02:34:40;;;;;;;4.55;2.55;;;;;;;23.93;45.04;96834.88;5134816;27;20106;-37
2022/05/22 02:37:06;;;;;;;6.53;2.60;;;;;;;23.97;45.10;96838.91;5134629;27;20068;-36
2022/05/22 02:39:32;;;;;;;3.80;2.53;;;;;;;24.04;44.58;96836.88;5134573;27;20023;-37
2022/05/22 02:42:04;;;;;;;4.68;2.53;;;;;;;24.05;44.65;96838.38;5134826;27;20052;-36
2022/05/22 02:44:30;;;;;;;4.95;3.00;;;;;;;24.05;44.65;96832.84;5134425;27;20050;-36
2022/05/22 02:46:55;;;;;;;4.00;2.55;;;;;;;23.98;45.04;96834.84;5134681;27;20435;-36
2022/05/22 02:49:27;;;;;;;5.82;2.35;;;;;;;24.02;44.86;96820.75;5134625;27;20034;-36
2022/05/22 02:51:52;;;;;;;4.55;2.95;;;;;;;24.03;44.99;96819.50;5134444;27;20023;-36
2022/05/22 02:54:18;;;;;;;4.22;2.60;;;;;;;24.02;44.56;96822.75;5134502;27;20015;-36
2022/05/22 02:56:44;;;;;;;6.25;2.70;;;;;;;23.99;44.81;96818.97;5134286;27;20414;-37
2022/05/22 02:59:10;;;;;;;3.67;2.50;;;;;;;23.95;44.87;96822.03;5134426;28;20029;-36
2022/05/22 03:01:36;;;;;;;4.30;2.30;;;;;;;23.98;44.96;96818.22;5134423;28;20536;-36
2022/05/22 03:04:01;;;;;;;3.63;2.53;;;;;;;24.00;44.73;96821.25;5134564;28;20067;-36
2022/05/22 03:06:39;;;;;;;4.93;2.45;;;;;;;24.03;44.55;96824.28;5134117;28;20027;-36
2022/05/22 03:09:07;;;;;;;4.32;2.30;;;;;;;23.98;44.77;96821.00;5134616;28;20027;-36
2022/05/22 03:11:36;;;;;;;5.00;1.90;;;;;;;23.95;44.76;96819.25;5134333;28;20023;-37
2022/05/22 03:14:02;;;;;;;6.40;2.50;;;;;;;23.97;44.56;96816.75;5134201;28;20023;-36
2022/05/22 03:16:27;;;;;;;3.60;2.22;;;;;;;24.01;44.40;96810.91;5134141;28;20023;-36
2022/05/22 03:18:53;;;;;;;4.72;2.60;;;;;;;23.92;44.73;96816.75;5133979;28;20015;-37
2022/05/22 03:21:18;;;;;;;3.97;2.35;;;;;;;23.94;44.82;96817.00;5134297;28;20019;-36
2022/05/22 03:23:44;;;;;;;4.38;2.35;;;;;;;23.98;44.68;96817.50;5134478;28;20023;-36
2022/05/22 03:26:09;;;;;;;5.70;2.40;;;;;;;23.98;44.53;96818.22;5115890;28;20023;-36
2022/05/22 03:28:36;;;;;;;4.05;2.17;;;;;;;23.88;44.96;96811.44;5134128;28;20093;-37
2022/05/22 03:31:01;;;;;;;3.50;2.55;;;;;;;23.94;44.76;96817.75;5134207;28;20027;-36
2022/05/22 03:33:27;;;;;;;4.80;2.50;;;;;;;23.96;44.51;96815.22;5133954;28;20105;-36
2022/05/22 03:35:52;;;;;;;4.80;2.50;;;;;;;24.00;44.29;96810.16;5134090;28;20102;-36
2022/05/22 03:38:18;;;;;;;4.47;2.40;;;;;;;23.96;44.20;96822.78;5135371;27;20022;-36
2022/05/22 03:40:47;;;;;;;4.28;2.25;;;;;;;23.93;44.36;96809.94;5137908;27;20387;-36
2022/05/22 03:43:16;;;;;;;6.15;2.78;;;;;;;23.92;44.28;96813.97;5138007;27;20019;-37
2022/05/22 03:45:44;;;;;;;3.70;2.17;;;;;;;23.91;44.33;96810.44;5137928;27;20557;-36
2022/05/22 03:48:10;;;;;;;3.78;2.17;;;;;;;23.91;44.44;96809.69;5138129;27;20397;-36
2022/05/22 03:50:36;;;;;;;6.15;2.58;;;;;;;23.91;44.02;96810.44;5137968;27;20019;-37
2022/05/22 03:53:03;;;;;;;3.78;2.13;;;;;;;23.88;44.14;96813.47;5119567;27;20394;-36
2022/05/22 03:55:28;;;;;;;6.13;2.20;;;;;;;23.90;44.01;96813.72;5119156;27;20039;-36
2022/05/22 03:57:54;;;;;;;3.65;2.15;;;;;;;23.82;44.15;96807.94;5137801;27;20042;-36
2022/05/22 04:00:21;;;;;;;4.78;2.47;;;;;;;23.90;44.18;96810.94;5137774;27;20050;-36
2022/05/22 04:02:47;;;;;;;3.78;2.10;;;;;;;23.86;44.16;96805.66;5137470;27;20027;-36
2022/05/22 04:05:13;;;;;;;6.38;2.60;;;;;;;23.89;44.15;96803.91;5137699;27;20497;-36
2022/05/22 04:07:41;;;;;;;4.22;2.75;;;;;;;23.84;43.84;96801.91;5137426;27;20020;-37
2022/05/22 04:10:07;;;;;;;3.78;2.08;;;;;;;23.85;43.96;96808.94;5137567;27;20471;-36
2022/05/22 04:12:34;;;;;;;4.40;2.60;;;;;;;23.88;43.74;96816.22;5137723;27;20023;-36
2022/05/22 04:14:59;;;;;;;4.15;2.75;;;;;;;23.85;43.75;96801.41;5137373;27;20474;-38
2022/05/22 04:17:25;;;;;;;4.75;2.58;;;;;;;23.87;43.74;96807.16;5137337;27;20023;-36
2022/05/22 04:19:51;;;;;;;5.10;2.40;;;;;;;23.82;44.00;96807.94;5137172;27;20031;-36
2022/05/22 04:22:16;;;;;;;4.07;2.20;;;;;;;23.88;43.90;96811.44;5137200;27;20021;-36
2022/05/22 04:27:26;;;;;;;3.72;2.20;;;;;;;23.82;44.08;96813.47;5137959;27;20404;-36
2022/05/22 04:29:52;;;;;;;3.53;2.20;;;;;;;23.83;43.91;96803.91;5137096;27;20047;-37
2022/05/22 04:32:17;;;;;;;4.90;2.55;;;;;;;23.83;43.92;96803.16;5137085;27;20417;-36
2022/05/22 04:34:43;;;;;;;4.43;2.30;;;;;;;23.83;43.67;96806.69;5136901;27;20022;-36
2022/05/22 04:37:08;;;;;;;6.35;2.40;;;;;;;23.86;44.00;96808.41;5136951;27;20023;-37
2022/05/22 04:39:34;;;;;;;6.00;2.30;;;;;;;23.88;43.63;96813.47;5136881;27;20026;-36
2022/05/22 04:41:59;;;;;;;3.05;1.88;;;;;;;23.84;43.73;96813.75;5136947;27;20019;-36
2022/05/22 04:44:25;;;;;;;4.07;2.10;;;;;;;23.85;43.69;96814.50;5136956;27;20027;-37
2022/05/22 04:46:50;;;;;;;4.93;2.72;;;;;;;23.86;43.61;96818.78;5136933;27;20094;-36
2022/05/22 04:49:16;;;;;;;3.05;2.03;;;;;;;23.88;43.72;96819.00;5136578;27;20093;-37
2022/05/22 04:51:41;;;;;;;3.45;2.63;;;;;;;23.86;43.77;96816.00;5136703;27;20019;-36
2022/05/22 04:54:07;;;;;;;3.13;2.10;;;;;;;23.87;43.56;96815.47;5137013;27;20019;-36
2022/05/22 04:56:32;;;;;;;3.75;2.35;;;;;;;23.83;43.64;96815.00;5136111;27;20046;-36
2022/05/22 04:58:58;;;;;;;3.95;2.40;;;;;;;23.80;43.81;96818.00;5136507;27;20049;-37
2022/05/22 05:01:24;;;;;;;5.63;2.53;;;;;;;23.85;43.79;96818.03;5136816;27;20218;-36
2022/05/22 05:03:49;;;;;;;3.85;1.98;;;;;;;23.84;43.66;96812.97;5136411;27;20424;-36
2022/05/22 05:06:15;;;;;;;3.25;2.22;;;;;;;23.85;43.55;96815.25;5136268;27;20042;-37
2022/05/22 05:08:41;;;;;;;6.00;2.35;;;;;;;23.84;43.77;96813.75;5136488;27;20015;-36
2022/05/22 05:11:10;;;;;;;3.60;2.10;;;;;;;23.78;44.03;96815.75;5136460;27;20023;-36
2022/05/22 05:13:37;;;;;;;3.72;2.65;;;;;;;23.79;43.69;96814.50;5136301;27;20102;-37
2022/05/22 05:16:11;;;;;;;3.45;2.45;;;;;;;23.80;43.75;96813.22;5136092;27;20023;-36
2022/05/22 05:18:38;;;;;;;4.53;1.98;;;;;;;23.87;43.68;96814.72;5136102;27;20029;-36
2022/05/22 05:21:10;;;;;;;3.30;2.40;;;;;;;23.85;43.68;96811.72;5136269;27;20020;-36
2022/05/22 05:23:37;;;;;;;4.90;2.35;;;;;;;23.82;43.79;96816.25;5135964;27;20059;-36
2022/05/22 05:26:03;;;;;;;4.15;2.38;;;;;;;23.85;43.85;96806.94;5136020;27;20012;-36
2022/05/22 05:28:30;;;;;;;3.13;2.10;;;;;;;23.78;43.94;96801.91;5136049;27;20375;-36
2022/05/22 05:30:56;;;;;;;4.10;2.38;;;;;;;23.83;43.75;96817.75;5135971;27;20023;-36
2022/05/22 05:33:22;;;;;;;4.18;2.38;;;;;;;23.87;43.49;96817.50;5135818;27;20034;-36
2022/05/22 05:35:47;;;;;;;2.60;2.17;;;;;;;23.85;43.66;96815.25;5135974;27;20500;-36
2022/05/22 05:38:13;;;;;;;2.97;2.00;;;;;;;23.83;43.68;96812.22;5135712;27;20098;-36
2022/05/22 05:40:39;;;;;;;2.20;1.77;;;;;;;23.83;43.78;96814.25;5135697;27;20149;-36
2022/05/22 05:43:06;;;;;;;2.22;2.00;;;;;;;23.83;43.48;96815.00;5135696;27;20042;-36
2022/05/22 05:45:31;;;;;;;2.90;2.13;;;;;;;23.82;43.41;96812.72;5135540;27;20026;-36
2022/05/22 05:48:00;;;;;;;3.58;2.00;;;;;;;23.82;43.61;96810.72;5135402;27;20474;-36
2022/05/22 05:50:26;;;;;;;2.65;1.95;;;;;;;23.79;43.61;96814.50;5135461;27;20055;-36
2022/05/22 05:52:56;;;;;;;2.75;2.13;;;;;;;23.78;43.50;96810.22;5135588;27;20455;-36
2022/05/22 05:55:24;;;;;;;4.50;2.25;;;;;;;23.69;43.71;96816.00;5135399;27;20139;-37
2022/05/22 05:57:50;;;;;;;3.60;2.22;;;;;;;23.72;43.76;96811.47;5135261;27;20027;-37
2022/05/22 06:00:19;;;;;;;2.80;2.10;;;;;;;23.73;43.49;96802.69;5134767;27;20091;-36
2022/05/22 06:02:44;;;;;;;3.97;2.10;;;;;;;23.82;43.41;96809.97;5134861;27;20022;-37
2022/05/22 06:05:12;;;;;;;3.00;2.20;;;;;;;23.82;43.37;96810.72;5135042;27;20023;-36
2022/05/22 06:07:38;;;;;;;3.20;2.10;;;;;;;23.80;43.51;96815.25;5135233;27;20063;-36
2022/05/22 06:10:06;;;;;;;3.45;2.25;;;;;;;23.79;43.15;96811.72;5135159;27;20027;-36
2022/05/22 06:12:31;;;;;;;2.22;2.03;;;;;;;23.81;43.34;96809.19;5135127;27;20455;-36
2022/05/22 06:14:57;;;;;;;3.00;2.20;;;;;;;23.74;43.20;96818.00;5134943;27;20023;-36
2022/05/22 06:17:30;;;;;;;3.53;2.35;;;;;;;23.72;43.39;96814.25;5135037;27;20459;-36
2022/05/22 06:19:56;;;;;;;2.70;1.75;;;;;;;23.74;43.06;96814.50;5135161;27;20027;-36
2022/05/22 06:22:24;;;;;;;2.88;1.80;;;;;;;23.71;43.49;96810.72;5134185;27;20023;-36
2022/05/22 06:24:50;;;;;;;3.08;2.05;;;;;;;23.70;43.38;96814.00;5112344;28;20034;-36
2022/05/22 06:27:16;;;;;;;2.65;2.17;;;;;;;23.77;42.90;96817.00;5112440;28;20066;-36
2022/05/22 06:29:42;;;;;;;2.97;2.38;;;;;;;23.76;43.21;96812.72;5112426;28;20463;-36
2022/05/22 06:32:12;;;;;;;3.97;2.13;;;;;;;23.79;42.87;96817.25;5112686;28;20023;-37
2022/05/22 06:34:41;;;;;;;3.22;2.42;;;;;;;23.77;42.88;96819.00;5112769;27;20029;-36
2022/05/22 06:37:10;;;;;;;2.30;2.10;;;;;;;23.73;42.98;96810.97;5131179;27;20019;-37
2022/05/22 06:39:52;;;;;;;2.75;2.20;;;;;;;23.76;42.87;96809.94;5132076;27;20053;-37
2022/05/22 06:42:22;;;;;;;4.03;2.30;;;;;;;23.74;43.21;96818.00;5132802;27;20095;-36
2022/05/22 06:44:59;;;;;;;3.70;2.05;;;;;;;23.74;43.27;96818.00;5132758;27;21364;-36
2022/05/22 06:47:28;;;;;;;3.90;2.35;;;;;;;23.55;43.53;96808.72;5132789;27;20057;-37
2022/05/22 06:49:56;;;;;;;3.53;1.98;;;;;;;23.62;43.44;96814.50;5132603;27;20058;-36
2022/05/22 06:52:22;;;;;;;3.60;2.00;;;;;;;23.57;43.41;96808.97;5132802;27;20118;-38
2022/05/22 06:54:47;;;;;;;5.43;2.35;;;;;;;23.44;43.61;96803.16;5132646;27;20069;-36
2022/05/22 06:57:18;;;;;;;3.30;2.45;;;;;;;23.58;43.32;96800.16;5112851;28;20083;-36
2022/05/22 06:59:45;;;;;;;2.50;1.95;;;;;;;23.66;42.89;96819.03;5112108;28;20020;-36
2022/05/22 07:02:11;;;;;;;3.45;2.15;;;;;;;23.57;43.15;96811.75;5112367;28;20072;-36
2022/05/22 07:04:36;;;;;;;2.95;2.40;;;;;;;23.67;42.80;96812.22;5112196;28;20024;-38
2022/05/22 07:07:02;;;;;;;3.50;2.28;;;;;;;23.56;43.09;96807.47;5111950;28;20417;-37
2022/05/22 07:09:28;;;;;;;3.72;2.30;;;;;;;23.52;43.22;96813.25;5112101;28;20046;-36
2022/05/22 07:11:57;;;;;;;3.08;2.00;;;;;;;23.69;42.60;96807.69;5105650;28;20020;-36
2022/05/22 07:14:23;;;;;;;6.28;2.30;;;;;;;23.52;42.81;96812.47;5096022;28;20097;-37
2022/05/22 07:16:49;;;;;;;3.13;2.20;;;;;;;23.40;43.11;96808.16;5095567;28;20020;-36
2022/05/22 07:19:17;;;;;;;4.47;2.70;;;;;;;23.30;43.11;96802.13;5095779;28;20031;-36
2022/05/22 07:21:43;;;;;;;4.35;2.10;;;;;;;23.52;42.68;96798.63;5095473;28;20032;-37
2022/05/22 07:24:08;;;;;;;3.13;2.15;;;;;;;23.63;42.35;96799.38;5095567;28;20035;-37
2022/05/22 07:26:35;;;;;;;3.25;2.08;;;;;;;23.59;42.22;96804.44;5095513;28;20023;-36
2022/05/22 07:29:01;;;;;;;3.45;2.20;;;;;;;23.57;42.11;96803.44;5095659;28;20035;-37
2022/05/22 07:31:27;;;;;;;3.88;2.10;;;;;;;23.53;42.63;96794.63;5095668;28;20024;-35
2022/05/22 07:33:53;;;;;;;2.45;2.00;;;;;;;23.46;42.88;96800.63;5095524;28;20093;-36
2022/05/22 07:36:20;;;;;;;3.00;1.90;;;;;;;23.48;43.33;96798.13;5095295;28;20020;-36
2022/05/22 07:38:46;;;;;;;4.47;2.33;;;;;;;23.35;44.34;96798.63;5093766;28;20028;-36
2022/05/22 07:41:12;;;;;;;9.10;2.70;;;;;;;23.47;43.91;96796.63;5096609;28;20085;-36
2022/05/22 07:43:39;;;;;;;2.25;2.05;;;;;;;23.35;44.21;96795.09;5104163;27;20015;-37
2022/05/22 07:46:05;;;;;;;4.28;2.28;;;;;;;23.49;43.15;96794.09;5103570;28;20020;-36
2022/05/22 07:48:31;;;;;;;5.40;2.08;;;;;;;23.33;43.77;96803.91;5104910;28;20077;-36
2022/05/22 07:51:00;;;;;;;4.50;2.33;;;;;;;23.37;44.25;96804.38;5107922;28;20031;-38
2022/05/22 07:53:27;;;;;;;3.85;2.40;;;;;;;23.54;44.33;96801.66;5097690;28;20024;-38
2022/05/22 07:55:52;;;;;;;3.80;2.30;;;;;;;23.58;44.01;96802.19;5103274;28;20042;-38
2022/05/22 07:58:20;;;;;;;9.52;2.42;;;;;;;23.58;43.83;96802.94;5115574;28;20031;-37
2022/05/22 08:00:46;;;;;;;3.25;2.00;;;;;;;23.50;44.63;96795.59;5115493;28;20387;-37
2022/05/22 08:03:14;;;;;;;4.32;2.35;;;;;;;23.19;45.78;96788.28;5128764;27;20023;-37
2022/05/22 08:05:41;;;;;;;6.32;2.88;;;;;;;23.22;45.71;96793.59;5137498;27;20057;-37
2022/05/22 08:08:08;;;;;;;3.30;2.30;;;;;;;23.33;45.48;96792.09;5137580;27;20463;-38
2022/05/22 08:10:36;;;;;;;4.32;2.13;;;;;;;23.35;44.82;96789.56;5137636;27;20045;-37
2022/05/22 08:13:04;;;;;;;3.10;2.17;;;;;;;23.32;45.01;96791.31;5137414;27;20101;-38
2022/05/22 08:15:31;;;;;;;10.82;2.35;;;;;;;23.31;45.31;96797.34;5137319;27;20114;-37
2022/05/22 08:17:57;;;;;;;4.05;1.88;;;;;;;23.54;44.35;96788.56;5137312;27;20358;-37
2022/05/22 08:20:24;;;;;;;4.95;2.33;;;;;;;23.33;44.51;96786.53;5137369;27;20019;-38
2022/05/22 08:22:59;;;;;;;4.28;2.15;;;;;;;23.44;44.26;96795.59;5137445;27;20442;-41
2022/05/22 08:25:27;;;;;;;4.78;2.00;;;;;;;23.37;44.52;96781.53;5136452;27;20023;-38
2022/05/22 08:27:56;;;;;;;5.93;1.90;;;;;;;23.46;44.08;96784.78;5137039;27;20027;-37
2022/05/22 08:30:24;;;;;;;5.32;1.90;;;;;;;23.49;44.25;96780.25;5137253;27;20022;-38
2022/05/22 08:32:51;;;;;;;3.50;1.90;;;;;;;23.64;43.64;96783.53;5137014;27;20068;-38
2022/05/22 08:35:27;;;;;;;5.03;1.92;;;;;;;23.45;43.73;96779.75;5137414;27;20053;-38
2022/05/22 08:37:53;;;;;;;3.65;1.95;;;;;;;23.58;43.88;96777.25;5136906;27;20120;-38
2022/05/22 08:40:21;;;;;;;5.25;2.35;;;;;;;23.67;43.26;96782.53;5137414;27;20470;-37
2022/05/22 08:43:11;;;;;;;3.63;1.90;;;;;;;23.69;43.11;96777.25;5136688;27;20019;-37
2022/05/22 08:45:44;;;;;;;4.50;2.13;;;;;;;23.71;43.23;96785.06;5136808;27;20076;-37
2022/05/22 08:48:32;;;;;;;4.72;2.13;;;;;;;23.73;43.05;96772.22;5137035;27;20466;-37
2022/05/22 08:50:59;;;;;;;4.85;2.00;;;;;;;23.75;43.12;96772.44;5136824;27;20035;-38
2022/05/22 08:53:37;;;;;;;2.17;1.80;;;;;;;23.76;42.90;96773.94;5136609;27;20022;-38
2022/05/22 08:59:19;;;;;;;3.17;2.17;;;;;;;23.77;42.94;96771.94;5136714;27;20113;-39
2022/05/22 09:01:56;;;;;;;3.75;2.10;;;;;;;23.58;42.93;96769.72;5136548;27;20031;-38
2022/05/22 09:04:31;;;;;;;6.13;2.20;;;;;;;23.71;42.52;96771.97;5136658;27;20058;-38
2022/05/22 09:07:19;;;;;;;2.67;1.90;;;;;;;23.73;41.77;96780.53;5136634;27;20016;-38
2022/05/22 09:09:50;;;;;;;5.22;2.08;;;;;;;23.72;41.86;96776.25;5136338;27;20034;-38
2022/05/22 09:12:48;;;;;;;3.13;1.75;;;;;;;23.73;42.20;96769.44;5136402;27;20027;-38
2022/05/22 09:15:42;;;;;;;2.40;1.85;;;;;;;23.74;40.72;96779.22;5136319;27;20059;-38
2022/05/22 09:18:26;;;;;;;2.47;1.98;;;;;;;23.76;41.27;96775.97;5136008;27;20023;-38
2022/05/22 09:21:03;;;;;;;5.47;2.05;;;;;;;23.79;40.85;96772.19;5136036;27;20034;-38
2022/05/22 09:24:02;;;;;;;4.07;1.83;;;;;;;23.76;41.46;96771.19;5135646;27;20054;-38
2022/05/22 09:26:44;;;;;;;1.85;1.70;;;;;;;23.73;41.17;96768.69;5136188;27;20175;-37
2022/05/22 09:29:48;;;;;;;3.28;1.80;;;;;;;23.80;40.51;96777.22;5136026;27;20027;-38
2022/05/22 09:32:37;;;;;;;5.13;1.90;;;;;;;23.78;40.96;96779.75;5135518;27;20023;-38
2022/05/22 09:35:30;;;;;;;2.78;1.77;;;;;;;23.80;40.28;96776.47;5135244;27;20046;-38
2022/05/22 09:38:04;;;;;;;3.40;1.73;;;;;;;23.81;40.15;96773.19;5135704;27;20023;-38
2022/05/22 09:40:51;;;;;;;2.53;1.95;;;;;;;23.85;40.05;96773.69;5136090;27;20051;-38
2022/05/22 09:43:40;;;;;;;2.42;1.55;;;;;;;23.87;39.83;96768.38;5135592;27;20022;-37
2022/05/22 09:46:33;;;;;;;2.17;1.52;;;;;;;23.79;40.08;96764.63;5135834;27;20046;-38
2022/05/22 09:49:16;;;;;;;5.60;1.90;;;;;;;23.84;39.93;96763.88;5135746;27;20050;-38
2022/05/22 09:51:56;;;;;;;3.28;1.83;;;;;;;23.86;39.37;96763.38;5135425;27;20027;-39
2022/05/22 09:54:59;;;;;;;3.17;1.80;;;;;;;23.84;39.40;96758.34;5135724;27;20038;-39
2022/05/22 09:57:49;;;;;;;3.20;1.75;;;;;;;23.84;39.19;96757.59;5135437;27;20031;-38
2022/05/22 10:00:19;;;;;;;2.00;1.63;;;;;;;23.82;38.57;96749.78;5135367;27;20054;-38
2022/05/22 10:03:16;;;;;;;2.63;1.40;;;;;;;23.76;38.90;96746.25;5133379;27;20107;-38
2022/05/22 10:06:09;;;;;;;3.50;2.03;;;;;;;23.72;38.91;96745.03;5133969;27;20090;-38
2022/05/22 10:09:06;;;;;;;3.90;1.60;;;;;;;23.83;38.96;96750.53;5135711;27;20123;-37
2022/05/22 10:12:04;;;;;;;4.25;2.13;;;;;;;23.87;38.66;96746.22;5135322;27;20255;-38
2022/05/22 10:15:00;;;;;;;1.58;1.45;;;;;;;23.90;38.42;96747.22;5112648;27;20039;-37
2022/05/22 10:17:32;;;;;;;2.58;1.60;;;;;;;23.92;37.98;96742.69;5135146;27;20155;-37
2022/05/22 10:20:18;;;;;;;2.88;1.58;;;;;;;23.94;38.17;96745.72;5134915;27;20027;-38
2022/05/22 10:23:06;;;;;;;3.70;1.52;;;;;;;23.88;38.46;96735.91;5135003;27;20230;-38
2022/05/22 10:26:06;;;;;;;2.00;1.40;;;;;;;23.90;38.38;96734.13;5135069;27;20409;-39
2022/05/22 10:28:38;;;;;;;3.22;1.80;;;;;;;23.95;38.57;96741.69;5135110;27;20490;-38
2022/05/22 10:31:13;;;;;;;3.35;1.70;;;;;;;23.94;38.40;96734.63;5134941;27;20030;-38
2022/05/22 10:33:52;;;;;;;3.75;1.70;;;;;;;23.95;38.39;96730.63;5116490;27;20362;-38
2022/05/22 10:36:27;;;;;;;2.88;1.75;;;;;;;23.97;38.64;96733.63;5134696;27;20363;-39
2022/05/22 10:38:56;;;;;;;6.03;1.90;;;;;;;23.95;38.54;96729.84;5134657;27;20023;-38
2022/05/22 10:44:30;;;;;;;2.28;1.83;;;;;;;23.96;38.81;96732.13;5134827;27;20102;-38
2022/05/22 10:47:02;;;;;;;2.85;1.65;;;;;;;24.02;38.70;96729.31;5134212;27;20019;-38
2022/05/22 10:49:45;;;;;;;4.13;1.85;;;;;;;24.00;38.93;96732.59;5134479;27;20051;-37
2022/05/22 10:52:12;;;;;;;;;;;;;;;23.97;38.68;96728.09;5134922;27;20409;-38
2022/05/22 10:54:50;;;;;;;3.65;1.50;;;;;;;23.99;38.84;96722.03;5134526;27;19918;-38
2022/05/22 10:57:25;;;;;;;3.45;1.83;;;;;;;24.02;38.88;96725.78;5116245;27;20046;-37
2022/05/22 10:59:52;;;;;;;5.75;1.92;;;;;;;23.95;39.21;96718.78;5134285;27;20049;-37
2022/05/22 11:02:29;;;;;;;5.10;1.75;;;;;;;23.94;39.29;96720.78;5134321;28;20474;-38
2022/05/22 11:04:57;;;;;;;2.97;1.92;;;;;;;24.02;39.07;96707.16;5134405;28;20405;-37
2022/05/22 11:07:32;;;;;;;4.78;1.80;;;;;;;23.98;39.38;96707.41;5134395;28;20455;-37
2022/05/22 11:10:10;;;;;;;6.25;2.20;;;;;;;24.06;39.37;96706.91;5134166;28;20367;-37
2022/05/22 11:12:35;;;;;;;4.10;1.85;;;;;;;24.00;39.67;96707.66;5134297;28;20030;-38
2022/05/22 11:15:24;;;;;;;3.58;1.83;;;;;;;24.04;39.50;96709.41;5134323;28;20019;-38
2022/05/22 11:18:10;;;;;;;3.40;1.58;;;;;;;24.03;40.06;96707.91;5134382;28;20084;-37
2022/05/22 11:20:55;;;;;;;4.07;1.90;;;;;;;24.07;39.96;96700.09;5134360;28;20391;-37
2022/05/22 11:23:31;;;;;;;3.45;1.85;;;;;;;24.02;40.16;96709.16;5134172;28;20019;-38
2022/05/22 11:26:25;;;;;;;3.60;1.98;;;;;;;23.98;40.16;96701.88;5134215;28;20416;-38
2022/05/22 11:28:50;;;;;;;;;;;;;;;24.08;40.05;96704.38;5124360;28;20044;-37
2022/05/22 11:31:23;;;;;;;2.88;1.88;;;;;;;24.08;40.24;96702.34;5134036;28;19913;-37
2022/05/22 11:34:26;;;;;;;4.32;1.90;;;;;;;24.03;40.06;96710.69;5134208;28;20027;-37
2022/05/22 11:37:18;;;;;;;2.20;1.75;;;;;;;23.97;40.65;96717.00;5133831;28;20043;-37
2022/05/22 11:40:11;;;;;;;3.67;2.22;;;;;;;24.09;40.13;96708.66;5133969;28;20043;-38
2022/05/22 11:42:38;;;;;;;2.63;1.77;;;;;;;24.09;40.16;96711.44;5133960;28;20473;-37
2022/05/22 11:45:32;;;;;;;2.92;2.15;;;;;;;24.03;40.47;96710.69;5134199;28;20135;-37
2022/05/22 11:48:07;;;;;;;4.57;1.63;;;;;;;24.09;40.41;96695.56;5134200;28;20019;-37
2022/05/22 11:50:50;;;;;;;2.47;1.90;;;;;;;24.13;40.42;96689.72;5134103;28;20094;-39
2022/05/22 11:53:37;;;;;;;3.15;1.80;;;;;;;24.17;40.19;96690.22;5134019;28;20034;-37
2022/05/22 11:56:24;;;;;;;3.15;2.03;;;;;;;24.12;40.46;96683.44;5133765;28;20039;-38
2022/05/22 11:59:01;;;;;;;3.55;2.35;;;;;;;24.12;40.22;96677.88;5134506;27;20485;-38
2022/05/22 12:01:32;;;;;;;3.28;1.98;;;;;;;24.09;40.62;96667.09;5137759;27;20035;-37
2022/05/22 12:04:14;;;;;;;4.25;1.77;;;;;;;24.18;40.20;96658.47;5137642;27;20102;-38